sensor_id;sensor_type;location;lat;lon;timestamp;temperature;humidity
5461;DHT22;2753;49.196;8.286;2022-08-01T00:01:25;24.90;63.10
5461;DHT22;2753;49.196;8.286;2022-08-01T00:03:51;24.80;63.50
5461;DHT22;2753;49.196;8.286;2022-08-01T00:06:16;24.60;64.50
5461;DHT22;2753;49.196;8.286;2022-08-01T00:08:42;24.50;64.80
5461;DHT22;2753;49.196;8.286;2022-08-01T00:11:08;24.60;65.00
5461;DHT22;2753;49.196;8.286;2022-08-01T00:13:34;24.60;64.60
5461;DHT22;2753;49.196;8.286;2022-08-01T00:16:00;24.60;65.00
5461;DHT22;2753;49.196;8.286;2022-08-01T00:18:26;24.60;65.30
5461;DHT22;2753;49.196;8.286;2022-08-01T00:20:52;24.70;64.60
5461;DHT22;2753;49.196;8.286;2022-08-01T00:23:17;24.70;64.80
5461;DHT22;2753;49.196;8.286;2022-08-01T00:25:43;24.70;64.80
5461;DHT22;2753;49.196;8.286;2022-08-01T00:28:09;24.70;65.50
5461;DHT22;2753;49.196;8.286;2022-08-01T00:30:35;24.70;65.50
5461;DHT22;2753;49.196;8.286;2022-08-01T00:33:02;24.50;65.30
5461;DHT22;2753;49.196;8.286;2022-08-01T00:35:28;24.60;65.00
5461;DHT22;2753;49.196;8.286;2022-08-01T00:37:54;24.70;65.50
5461;DHT22;2753;49.196;8.286;2022-08-01T00:40:20;24.70;65.40
5461;DHT22;2753;49.196;8.286;2022-08-01T00:42:45;24.60;65.00
5461;DHT22;2753;49.196;8.286;2022-08-01T00:45:11;24.60;65.40
5461;DHT22;2753;49.196;8.286;2022-08-01T00:47:37;24.60;65.60
5461;DHT22;2753;49.196;8.286;2022-08-01T00:50:04;24.50;66.60
5461;DHT22;2753;49.196;8.286;2022-08-01T00:52:30;24.40;66.50
5461;DHT22;2753;49.196;8.286;2022-08-01T00:54:56;24.40;66.50
5461;DHT22;2753;49.196;8.286;2022-08-01T00:57:22;24.30;67.60
5461;DHT22;2753;49.196;8.286;2022-08-01T00:59:48;24.10;68.40
5461;DHT22;2753;49.196;8.286;2022-08-01T01:02:13;24.20;67.90
5461;DHT22;2753;49.196;8.286;2022-08-01T01:04:39;24.20;67.30
5461;DHT22;2753;49.196;8.286;2022-08-01T01:09:42;24.10;68.60
5461;DHT22;2753;49.196;8.286;2022-08-01T01:12:25;24.10;68.40
5461;DHT22;2753;49.196;8.286;2022-08-01T01:14:56;24.10;68.40
5461;DHT22;2753;49.196;8.286;2022-08-01T01:18:02;23.90;69.00
5461;DHT22;2753;49.196;8.286;2022-08-01T01:20:40;23.90;68.80
5461;DHT22;2753;49.196;8.286;2022-08-01T01:23:20;23.80;68.70
5461;DHT22;2753;49.196;8.286;2022-08-01T01:32:14;23.90;68.60
5461;DHT22;2753;49.196;8.286;2022-08-01T01:34:44;23.80;69.00
5461;DHT22;2753;49.196;8.286;2022-08-01T01:37:14;23.90;69.20
5461;DHT22;2753;49.196;8.286;2022-08-01T01:39:42;23.90;68.80
5461;DHT22;2753;49.196;8.286;2022-08-01T01:42:10;23.90;69.00
5461;DHT22;2753;49.196;8.286;2022-08-01T01:44:37;23.80;68.90
5461;DHT22;2753;49.196;8.286;2022-08-01T01:47:04;23.80;69.50
5461;DHT22;2753;49.196;8.286;2022-08-01T01:49:32;23.80;69.60
5461;DHT22;2753;49.196;8.286;2022-08-01T01:51:59;23.80;69.50
5461;DHT22;2753;49.196;8.286;2022-08-01T01:54:30;23.70;70.00
5461;DHT22;2753;49.196;8.286;2022-08-01T01:56:58;23.60;70.00
5461;DHT22;2753;49.196;8.286;2022-08-01T01:59:28;23.50;70.60
5461;DHT22;2753;49.196;8.286;2022-08-01T02:01:56;23.60;70.40
5461;DHT22;2753;49.196;8.286;2022-08-01T02:04:24;23.60;70.10
5461;DHT22;2753;49.196;8.286;2022-08-01T02:06:51;23.40;71.20
5461;DHT22;2753;49.196;8.286;2022-08-01T02:09:20;23.20;72.10
5461;DHT22;2753;49.196;8.286;2022-08-01T02:11:47;23.20;71.80
5461;DHT22;2753;49.196;8.286;2022-08-01T02:14:15;23.20;72.50
5461;DHT22;2753;49.196;8.286;2022-08-01T02:16:46;23.20;72.40
5461;DHT22;2753;49.196;8.286;2022-08-01T02:19:13;23.20;72.60
5461;DHT22;2753;49.196;8.286;2022-08-01T02:22:04;23.20;72.50
5461;DHT22;2753;49.196;8.286;2022-08-01T02:24:50;23.20;72.40
5461;DHT22;2753;49.196;8.286;2022-08-01T02:30:31;23.00;73.10
5461;DHT22;2753;49.196;8.286;2022-08-01T02:35:38;23.00;73.50
5461;DHT22;2753;49.196;8.286;2022-08-01T02:38:09;22.90;73.90
5461;DHT22;2753;49.196;8.286;2022-08-01T02:40:38;22.90;73.50
5461;DHT22;2753;49.196;8.286;2022-08-01T02:43:06;22.90;73.20
5461;DHT22;2753;49.196;8.286;2022-08-01T02:45:35;22.90;73.30
5461;DHT22;2753;49.196;8.286;2022-08-01T02:48:09;22.90;73.70
5461;DHT22;2753;49.196;8.286;2022-08-01T02:50:36;22.90;73.70
5461;DHT22;2753;49.196;8.286;2022-08-01T02:53:04;22.80;74.10
5461;DHT22;2753;49.196;8.286;2022-08-01T02:55:32;22.80;74.00
5461;DHT22;2753;49.196;8.286;2022-08-01T02:58:01;22.60;74.60
5461;DHT22;2753;49.196;8.286;2022-08-01T03:00:30;22.70;73.60
5461;DHT22;2753;49.196;8.286;2022-08-01T03:02:56;22.80;74.20
5461;DHT22;2753;49.196;8.286;2022-08-01T03:05:25;22.80;74.00
5461;DHT22;2753;49.196;8.286;2022-08-01T03:07:52;22.90;73.40
5461;DHT22;2753;49.196;8.286;2022-08-01T03:10:19;22.90;73.50
5461;DHT22;2753;49.196;8.286;2022-08-01T03:12:47;22.90;73.60
5461;DHT22;2753;49.196;8.286;2022-08-01T03:15:15;22.90;73.80
5461;DHT22;2753;49.196;8.286;2022-08-01T03:17:44;22.70;75.00
5461;DHT22;2753;49.196;8.286;2022-08-01T03:20:13;22.70;74.80
5461;DHT22;2753;49.196;8.286;2022-08-01T03:22:40;22.70;75.40
5461;DHT22;2753;49.196;8.286;2022-08-01T03:25:08;22.60;75.50
5461;DHT22;2753;49.196;8.286;2022-08-01T03:27:36;22.70;75.70
5461;DHT22;2753;49.196;8.286;2022-08-01T03:30:04;22.70;75.40
5461;DHT22;2753;49.196;8.286;2022-08-01T03:32:30;22.70;75.30
5461;DHT22;2753;49.196;8.286;2022-08-01T03:34:57;22.70;75.70
5461;DHT22;2753;49.196;8.286;2022-08-01T03:37:29;22.70;75.50
5461;DHT22;2753;49.196;8.286;2022-08-01T03:40:39;22.70;75.60
5461;DHT22;2753;49.196;8.286;2022-08-01T03:43:10;22.60;75.60
5461;DHT22;2753;49.196;8.286;2022-08-01T03:45:40;22.60;76.20
5461;DHT22;2753;49.196;8.286;2022-08-01T03:48:13;22.60;76.20
5461;DHT22;2753;49.196;8.286;2022-08-01T03:50:42;22.60;76.50
5461;DHT22;2753;49.196;8.286;2022-08-01T03:53:09;22.60;76.50
5461;DHT22;2753;49.196;8.286;2022-08-01T03:55:38;22.50;76.60
5461;DHT22;2753;49.196;8.286;2022-08-01T03:58:05;22.50;76.40
5461;DHT22;2753;49.196;8.286;2022-08-01T04:00:32;22.50;76.60
5461;DHT22;2753;49.196;8.286;2022-08-01T04:02:58;22.50;76.70
5461;DHT22;2753;49.196;8.286;2022-08-01T04:05:24;22.50;77.00
5461;DHT22;2753;49.196;8.286;2022-08-01T04:07:51;22.40;76.60
5461;DHT22;2753;49.196;8.286;2022-08-01T04:10:25;22.40;77.30
5461;DHT22;2753;49.196;8.286;2022-08-01T04:12:51;22.40;77.40
5461;DHT22;2753;49.196;8.286;2022-08-01T04:15:17;22.30;77.60
5461;DHT22;2753;49.196;8.286;2022-08-01T04:17:43;22.30;78.10
5461;DHT22;2753;49.196;8.286;2022-08-01T04:20:09;22.20;78.10
5461;DHT22;2753;49.196;8.286;2022-08-01T04:22:36;22.30;78.10
5461;DHT22;2753;49.196;8.286;2022-08-01T04:25:07;22.20;78.30
5461;DHT22;2753;49.196;8.286;2022-08-01T04:27:37;22.20;78.20
5461;DHT22;2753;49.196;8.286;2022-08-01T04:30:05;22.20;78.10
5461;DHT22;2753;49.196;8.286;2022-08-01T04:32:33;22.30;78.10
5461;DHT22;2753;49.196;8.286;2022-08-01T04:35:04;22.20;78.80
5461;DHT22;2753;49.196;8.286;2022-08-01T04:37:31;22.20;78.50
5461;DHT22;2753;49.196;8.286;2022-08-01T04:39:58;22.20;79.10
5461;DHT22;2753;49.196;8.286;2022-08-01T04:42:25;22.10;79.10
5461;DHT22;2753;49.196;8.286;2022-08-01T04:44:53;22.10;78.80
5461;DHT22;2753;49.196;8.286;2022-08-01T04:47:19;22.20;79.00
5461;DHT22;2753;49.196;8.286;2022-08-01T04:49:45;22.20;79.80
5461;DHT22;2753;49.196;8.286;2022-08-01T04:52:12;22.20;78.80
5461;DHT22;2753;49.196;8.286;2022-08-01T04:54:38;22.30;78.60
5461;DHT22;2753;49.196;8.286;2022-08-01T04:57:04;22.30;78.70
5461;DHT22;2753;49.196;8.286;2022-08-01T04:59:35;22.30;79.50
5461;DHT22;2753;49.196;8.286;2022-08-01T05:02:17;22.20;79.40
5461;DHT22;2753;49.196;8.286;2022-08-01T05:04:44;22.30;78.90
5461;DHT22;2753;49.196;8.286;2022-08-01T05:07:11;22.30;79.20
5461;DHT22;2753;49.196;8.286;2022-08-01T05:09:39;22.40;78.50
5461;DHT22;2753;49.196;8.286;2022-08-01T05:12:07;22.40;78.50
5461;DHT22;2753;49.196;8.286;2022-08-01T05:14:33;22.50;78.60
5461;DHT22;2753;49.196;8.286;2022-08-01T05:17:01;22.50;79.40
5461;DHT22;2753;49.196;8.286;2022-08-01T05:19:29;22.40;79.70
5461;DHT22;2753;49.196;8.286;2022-08-01T05:21:55;22.40;79.50
5461;DHT22;2753;49.196;8.286;2022-08-01T05:24:22;22.40;79.70
5461;DHT22;2753;49.196;8.286;2022-08-01T05:26:48;22.50;80.00
5461;DHT22;2753;49.196;8.286;2022-08-01T05:29:14;22.50;78.80
5461;DHT22;2753;49.196;8.286;2022-08-01T05:31:40;22.60;79.60
5461;DHT22;2753;49.196;8.286;2022-08-01T05:34:06;22.60;78.30
5461;DHT22;2753;49.196;8.286;2022-08-01T05:36:32;22.70;79.20
5461;DHT22;2753;49.196;8.286;2022-08-01T05:38:58;22.80;79.90
5461;DHT22;2753;49.196;8.286;2022-08-01T05:41:23;22.80;79.30
5461;DHT22;2753;49.196;8.286;2022-08-01T05:43:49;22.80;79.50
5461;DHT22;2753;49.196;8.286;2022-08-01T05:46:15;22.80;80.30
5461;DHT22;2753;49.196;8.286;2022-08-01T05:48:41;22.80;79.30
5461;DHT22;2753;49.196;8.286;2022-08-01T05:51:06;22.90;80.40
5461;DHT22;2753;49.196;8.286;2022-08-01T05:53:32;22.90;79.70
5461;DHT22;2753;49.196;8.286;2022-08-01T05:56:00;22.90;79.70
5461;DHT22;2753;49.196;8.286;2022-08-01T05:58:26;23.00;79.30
5461;DHT22;2753;49.196;8.286;2022-08-01T06:00:52;23.10;80.20
5461;DHT22;2753;49.196;8.286;2022-08-01T06:03:18;23.10;81.00
5461;DHT22;2753;49.196;8.286;2022-08-01T06:05:44;23.20;80.70
5461;DHT22;2753;49.196;8.286;2022-08-01T06:08:10;23.20;81.10
5461;DHT22;2753;49.196;8.286;2022-08-01T06:10:35;23.20;80.90
5461;DHT22;2753;49.196;8.286;2022-08-01T06:13:01;23.20;79.80
5461;DHT22;2753;49.196;8.286;2022-08-01T06:15:29;23.30;80.90
5461;DHT22;2753;49.196;8.286;2022-08-01T06:17:55;23.30;80.60
5461;DHT22;2753;49.196;8.286;2022-08-01T06:20:21;23.30;80.40
5461;DHT22;2753;49.196;8.286;2022-08-01T06:22:46;23.30;80.00
5461;DHT22;2753;49.196;8.286;2022-08-01T06:25:12;23.40;80.40
5461;DHT22;2753;49.196;8.286;2022-08-01T06:27:38;23.40;80.10
5461;DHT22;2753;49.196;8.286;2022-08-01T06:30:05;23.50;80.20
5461;DHT22;2753;49.196;8.286;2022-08-01T06:32:33;23.50;78.80
5461;DHT22;2753;49.196;8.286;2022-08-01T06:34:59;23.60;79.80
5461;DHT22;2753;49.196;8.286;2022-08-01T06:37:31;23.60;79.30
5461;DHT22;2753;49.196;8.286;2022-08-01T06:40:08;23.80;79.20
5461;DHT22;2753;49.196;8.286;2022-08-01T06:42:35;23.90;78.80
5461;DHT22;2753;49.196;8.286;2022-08-01T06:45:09;24.00;78.20
5461;DHT22;2753;49.196;8.286;2022-08-01T06:47:36;24.00;77.60
5461;DHT22;2753;49.196;8.286;2022-08-01T06:50:03;24.20;77.40
5461;DHT22;2753;49.196;8.286;2022-08-01T06:52:29;24.30;76.90
5461;DHT22;2753;49.196;8.286;2022-08-01T06:54:54;24.70;76.70
5461;DHT22;2753;49.196;8.286;2022-08-01T06:57:20;24.80;75.90
5461;DHT22;2753;49.196;8.286;2022-08-01T06:59:46;24.90;75.50
5461;DHT22;2753;49.196;8.286;2022-08-01T07:02:11;25.10;74.50
5461;DHT22;2753;49.196;8.286;2022-08-01T07:04:37;25.30;74.10
5461;DHT22;2753;49.196;8.286;2022-08-01T07:07:03;25.40;73.80
5461;DHT22;2753;49.196;8.286;2022-08-01T07:09:29;25.60;73.10
5461;DHT22;2753;49.196;8.286;2022-08-01T07:11:55;25.50;72.80
5461;DHT22;2753;49.196;8.286;2022-08-01T07:14:21;25.70;72.40
5461;DHT22;2753;49.196;8.286;2022-08-01T07:16:47;25.80;72.50
5461;DHT22;2753;49.196;8.286;2022-08-01T07:19:13;25.90;72.20
5461;DHT22;2753;49.196;8.286;2022-08-01T07:21:39;25.90;72.20
5461;DHT22;2753;49.196;8.286;2022-08-01T07:24:06;26.00;72.10
5461;DHT22;2753;49.196;8.286;2022-08-01T07:26:32;26.10;72.20
5461;DHT22;2753;49.196;8.286;2022-08-01T07:28:58;26.20;71.30
5461;DHT22;2753;49.196;8.286;2022-08-01T07:31:24;26.30;71.40
5461;DHT22;2753;49.196;8.286;2022-08-01T07:33:50;26.50;71.10
5461;DHT22;2753;49.196;8.286;2022-08-01T07:36:18;26.50;70.40
5461;DHT22;2753;49.196;8.286;2022-08-01T07:38:45;26.60;70.20
5461;DHT22;2753;49.196;8.286;2022-08-01T07:41:11;26.60;69.50
5461;DHT22;2753;49.196;8.286;2022-08-01T07:43:37;26.60;69.80
5461;DHT22;2753;49.196;8.286;2022-08-01T07:46:06;26.60;69.90
5461;DHT22;2753;49.196;8.286;2022-08-01T07:48:31;26.60;70.00
5461;DHT22;2753;49.196;8.286;2022-08-01T07:50:57;26.40;69.90
5461;DHT22;2753;49.196;8.286;2022-08-01T07:53:23;26.50;70.40
5461;DHT22;2753;49.196;8.286;2022-08-01T07:55:49;26.70;69.90
5461;DHT22;2753;49.196;8.286;2022-08-01T07:58:15;27.00;68.90
5461;DHT22;2753;49.196;8.286;2022-08-01T08:00:41;27.30;68.50
5461;DHT22;2753;49.196;8.286;2022-08-01T08:03:07;27.40;67.80
5461;DHT22;2753;49.196;8.286;2022-08-01T08:05:33;27.40;66.80
5461;DHT22;2753;49.196;8.286;2022-08-01T08:08:05;27.40;67.00
5461;DHT22;2753;49.196;8.286;2022-08-01T08:10:31;27.60;66.80
5461;DHT22;2753;49.196;8.286;2022-08-01T08:12:56;27.80;66.30
5461;DHT22;2753;49.196;8.286;2022-08-01T08:15:22;27.80;65.60
5461;DHT22;2753;49.196;8.286;2022-08-01T08:17:48;27.80;65.90
5461;DHT22;2753;49.196;8.286;2022-08-01T08:20:14;28.00;65.50
5461;DHT22;2753;49.196;8.286;2022-08-01T08:22:40;28.00;65.70
5461;DHT22;2753;49.196;8.286;2022-08-01T08:25:06;28.10;65.30
5461;DHT22;2753;49.196;8.286;2022-08-01T08:27:32;28.10;65.10
5461;DHT22;2753;49.196;8.286;2022-08-01T08:29:58;28.10;65.10
5461;DHT22;2753;49.196;8.286;2022-08-01T08:32:24;28.10;64.90
5461;DHT22;2753;49.196;8.286;2022-08-01T08:34:49;28.10;64.80
5461;DHT22;2753;49.196;8.286;2022-08-01T08:37:15;28.20;65.10
5461;DHT22;2753;49.196;8.286;2022-08-01T08:39:42;28.20;64.80
5461;DHT22;2753;49.196;8.286;2022-08-01T08:42:09;28.30;64.70
5461;DHT22;2753;49.196;8.286;2022-08-01T08:44:35;28.40;64.90
5461;DHT22;2753;49.196;8.286;2022-08-01T08:47:02;28.90;63.70
5461;DHT22;2753;49.196;8.286;2022-08-01T08:49:31;28.70;63.10
5461;DHT22;2753;49.196;8.286;2022-08-01T08:52:01;28.50;63.90
5461;DHT22;2753;49.196;8.286;2022-08-01T08:54:28;28.40;64.40
5461;DHT22;2753;49.196;8.286;2022-08-01T08:56:54;28.50;64.20
5461;DHT22;2753;49.196;8.286;2022-08-01T08:59:22;28.60;64.20
5461;DHT22;2753;49.196;8.286;2022-08-01T09:01:51;28.60;64.70
5461;DHT22;2753;49.196;8.286;2022-08-01T09:04:17;28.50;64.50
5461;DHT22;2753;49.196;8.286;2022-08-01T09:06:43;28.50;64.40
5461;DHT22;2753;49.196;8.286;2022-08-01T09:09:10;28.50;64.80
5461;DHT22;2753;49.196;8.286;2022-08-01T09:11:36;28.70;64.40
5461;DHT22;2753;49.196;8.286;2022-08-01T09:16:29;28.60;64.80
5461;DHT22;2753;49.196;8.286;2022-08-01T09:19:06;28.40;64.90
5461;DHT22;2753;49.196;8.286;2022-08-01T09:21:33;28.20;64.60
5461;DHT22;2753;49.196;8.286;2022-08-01T09:23:58;28.10;65.10
5461;DHT22;2753;49.196;8.286;2022-08-01T09:26:31;28.10;65.50
5461;DHT22;2753;49.196;8.286;2022-08-01T09:28:57;28.00;65.10
5461;DHT22;2753;49.196;8.286;2022-08-01T09:31:26;28.00;65.30
5461;DHT22;2753;49.196;8.286;2022-08-01T09:33:58;28.10;65.30
5461;DHT22;2753;49.196;8.286;2022-08-01T09:36:42;28.20;65.40
5461;DHT22;2753;49.196;8.286;2022-08-01T09:39:15;28.20;65.10
5461;DHT22;2753;49.196;8.286;2022-08-01T09:41:41;28.10;65.20
5461;DHT22;2753;49.196;8.286;2022-08-01T09:44:06;28.10;64.80
5461;DHT22;2753;49.196;8.286;2022-08-01T09:46:32;28.20;65.10
5461;DHT22;2753;49.196;8.286;2022-08-01T09:49:03;28.20;65.30
5461;DHT22;2753;49.196;8.286;2022-08-01T09:53:56;28.40;64.80
5461;DHT22;2753;49.196;8.286;2022-08-01T09:56:22;28.30;65.10
5461;DHT22;2753;49.196;8.286;2022-08-01T09:58:56;28.10;65.60
5461;DHT22;2753;49.196;8.286;2022-08-01T10:01:23;28.10;66.00
5461;DHT22;2753;49.196;8.286;2022-08-01T10:04:12;28.10;65.60
5461;DHT22;2753;49.196;8.286;2022-08-01T10:06:39;28.10;65.70
5461;DHT22;2753;49.196;8.286;2022-08-01T10:09:05;28.20;65.10
5461;DHT22;2753;49.196;8.286;2022-08-01T10:11:31;28.30;64.80
5461;DHT22;2753;49.196;8.286;2022-08-01T10:13:59;28.30;65.00
5461;DHT22;2753;49.196;8.286;2022-08-01T10:16:26;28.20;65.10
5461;DHT22;2753;49.196;8.286;2022-08-01T10:18:54;28.00;65.40
5461;DHT22;2753;49.196;8.286;2022-08-01T10:21:20;28.10;65.90
5461;DHT22;2753;49.196;8.286;2022-08-01T10:23:49;28.00;66.10
5461;DHT22;2753;49.196;8.286;2022-08-01T10:26:16;28.00;66.10
5461;DHT22;2753;49.196;8.286;2022-08-01T10:28:44;27.90;66.30
5461;DHT22;2753;49.196;8.286;2022-08-01T10:31:13;27.80;66.50
5461;DHT22;2753;49.196;8.286;2022-08-01T10:33:40;27.70;66.70
5461;DHT22;2753;49.196;8.286;2022-08-01T10:36:07;27.80;66.80
5461;DHT22;2753;49.196;8.286;2022-08-01T10:38:35;28.00;66.10
5461;DHT22;2753;49.196;8.286;2022-08-01T10:41:02;28.20;66.00
5461;DHT22;2753;49.196;8.286;2022-08-01T10:43:28;28.20;66.00
5461;DHT22;2753;49.196;8.286;2022-08-01T10:45:54;28.10;65.80
5461;DHT22;2753;49.196;8.286;2022-08-01T10:48:41;28.10;65.50
5461;DHT22;2753;49.196;8.286;2022-08-01T10:51:08;28.10;64.90
5461;DHT22;2753;49.196;8.286;2022-08-01T10:53:34;28.10;64.80
5461;DHT22;2753;49.196;8.286;2022-08-01T10:58:33;28.20;64.40
5461;DHT22;2753;49.196;8.286;2022-08-01T11:01:32;28.20;64.40
5461;DHT22;2753;49.196;8.286;2022-08-01T11:06:35;28.20;63.50
5461;DHT22;2753;49.196;8.286;2022-08-01T11:09:29;28.20;63.30
5461;DHT22;2753;49.196;8.286;2022-08-01T11:14:25;28.20;61.50
5461;DHT22;2753;49.196;8.286;2022-08-01T11:16:51;28.30;61.30
5461;DHT22;2753;49.196;8.286;2022-08-01T11:19:17;28.30;61.40
5461;DHT22;2753;49.196;8.286;2022-08-01T11:27:31;28.50;61.50
5461;DHT22;2753;49.196;8.286;2022-08-01T11:32:57;28.50;59.50
5461;DHT22;2753;49.196;8.286;2022-08-01T11:35:24;28.50;60.00
5461;DHT22;2753;49.196;8.286;2022-08-01T11:37:53;28.50;60.00
5461;DHT22;2753;49.196;8.286;2022-08-01T11:40:27;28.60;60.50
5461;DHT22;2753;49.196;8.286;2022-08-01T11:48:25;28.80;58.50
5461;DHT22;2753;49.196;8.286;2022-08-01T11:50:52;28.60;59.50
5461;DHT22;2753;49.196;8.286;2022-08-01T11:53:18;28.60;58.10
5461;DHT22;2753;49.196;8.286;2022-08-01T11:55:49;28.70;59.40
5461;DHT22;2753;49.196;8.286;2022-08-01T11:58:24;28.80;59.80
5461;DHT22;2753;49.196;8.286;2022-08-01T12:03:30;29.00;59.10
5461;DHT22;2753;49.196;8.286;2022-08-01T12:05:56;29.00;58.70
5461;DHT22;2753;49.196;8.286;2022-08-01T12:10:51;29.10;58.40
5461;DHT22;2753;49.196;8.286;2022-08-01T12:13:17;29.10;58.40
5461;DHT22;2753;49.196;8.286;2022-08-01T12:15:44;29.10;59.00
5461;DHT22;2753;49.196;8.286;2022-08-01T12:18:11;29.10;59.80
5461;DHT22;2753;49.196;8.286;2022-08-01T12:20:39;29.20;59.60
5461;DHT22;2753;49.196;8.286;2022-08-01T12:23:08;29.20;59.30
5461;DHT22;2753;49.196;8.286;2022-08-01T12:25:35;29.20;58.20
5461;DHT22;2753;49.196;8.286;2022-08-01T12:28:08;29.30;58.60
5461;DHT22;2753;49.196;8.286;2022-08-01T12:30:35;29.40;58.70
5461;DHT22;2753;49.196;8.286;2022-08-01T12:33:06;29.50;58.90
5461;DHT22;2753;49.196;8.286;2022-08-01T12:35:33;29.50;58.70
5461;DHT22;2753;49.196;8.286;2022-08-01T12:38:01;29.50;59.10
5461;DHT22;2753;49.196;8.286;2022-08-01T12:40:29;29.40;58.60
5461;DHT22;2753;49.196;8.286;2022-08-01T12:42:57;29.30;58.70
5461;DHT22;2753;49.196;8.286;2022-08-01T12:45:28;29.40;58.70
5461;DHT22;2753;49.196;8.286;2022-08-01T12:47:56;29.40;58.30
5461;DHT22;2753;49.196;8.286;2022-08-01T12:50:30;29.50;57.80
5461;DHT22;2753;49.196;8.286;2022-08-01T12:52:57;29.50;57.10
5461;DHT22;2753;49.196;8.286;2022-08-01T12:55:25;29.40;56.90
5461;DHT22;2753;49.196;8.286;2022-08-01T13:00:29;29.50;57.60
5461;DHT22;2753;49.196;8.286;2022-08-01T13:08:12;29.60;57.10
5461;DHT22;2753;49.196;8.286;2022-08-01T13:10:38;29.60;57.10
5461;DHT22;2753;49.196;8.286;2022-08-01T13:13:04;29.60;57.40
5461;DHT22;2753;49.196;8.286;2022-08-01T13:15:35;29.70;57.00
5461;DHT22;2753;49.196;8.286;2022-08-01T13:18:28;29.70;56.90
5461;DHT22;2753;49.196;8.286;2022-08-01T13:21:21;29.80;57.20
5461;DHT22;2753;49.196;8.286;2022-08-01T13:29:14;29.70;57.20
5461;DHT22;2753;49.196;8.286;2022-08-01T13:31:41;29.70;57.20
5461;DHT22;2753;49.196;8.286;2022-08-01T13:34:07;29.60;57.20
5461;DHT22;2753;49.196;8.286;2022-08-01T13:36:33;29.70;57.20
5461;DHT22;2753;49.196;8.286;2022-08-01T13:39:00;29.60;57.60
5461;DHT22;2753;49.196;8.286;2022-08-01T13:42:01;29.60;57.70
5461;DHT22;2753;49.196;8.286;2022-08-01T13:44:27;29.60;57.80
5461;DHT22;2753;49.196;8.286;2022-08-01T13:46:52;29.50;57.90
5461;DHT22;2753;49.196;8.286;2022-08-01T13:49:18;29.60;58.00
5461;DHT22;2753;49.196;8.286;2022-08-01T13:51:44;29.50;58.00
5461;DHT22;2753;49.196;8.286;2022-08-01T13:54:11;29.60;58.10
5461;DHT22;2753;49.196;8.286;2022-08-01T13:56:37;29.70;57.90
5461;DHT22;2753;49.196;8.286;2022-08-01T13:59:03;29.60;57.50
5461;DHT22;2753;49.196;8.286;2022-08-01T14:01:28;29.70;58.10
5461;DHT22;2753;49.196;8.286;2022-08-01T14:03:54;29.70;58.00
5461;DHT22;2753;49.196;8.286;2022-08-01T14:06:20;29.60;58.00
5461;DHT22;2753;49.196;8.286;2022-08-01T14:08:48;29.50;58.40
5461;DHT22;2753;49.196;8.286;2022-08-01T14:11:13;29.50;58.40
5461;DHT22;2753;49.196;8.286;2022-08-01T14:13:39;29.50;58.60
5461;DHT22;2753;49.196;8.286;2022-08-01T14:16:06;29.50;58.60
5461;DHT22;2753;49.196;8.286;2022-08-01T14:18:32;29.60;58.80
5461;DHT22;2753;49.196;8.286;2022-08-01T14:20:58;29.50;58.60
5461;DHT22;2753;49.196;8.286;2022-08-01T14:23:24;29.50;58.60
5461;DHT22;2753;49.196;8.286;2022-08-01T14:25:49;29.60;59.30
5461;DHT22;2753;49.196;8.286;2022-08-01T14:28:15;29.60;59.10
5461;DHT22;2753;49.196;8.286;2022-08-01T14:30:41;29.50;59.10
5461;DHT22;2753;49.196;8.286;2022-08-01T14:33:08;29.50;58.90
5461;DHT22;2753;49.196;8.286;2022-08-01T14:35:34;29.50;58.30
5461;DHT22;2753;49.196;8.286;2022-08-01T14:38:00;29.50;58.50
5461;DHT22;2753;49.196;8.286;2022-08-01T14:40:26;29.50;58.70
5461;DHT22;2753;49.196;8.286;2022-08-01T14:42:51;29.50;58.70
5461;DHT22;2753;49.196;8.286;2022-08-01T14:45:17;29.50;58.70
5461;DHT22;2753;49.196;8.286;2022-08-01T14:47:43;29.50;58.70
5461;DHT22;2753;49.196;8.286;2022-08-01T14:50:11;29.50;58.90
5461;DHT22;2753;49.196;8.286;2022-08-01T14:52:38;29.40;58.40
5461;DHT22;2753;49.196;8.286;2022-08-01T14:55:06;29.40;58.30
5461;DHT22;2753;49.196;8.286;2022-08-01T14:57:32;29.50;58.70
5461;DHT22;2753;49.196;8.286;2022-08-01T14:59:58;29.50;58.60
5461;DHT22;2753;49.196;8.286;2022-08-01T15:02:24;29.40;58.50
5461;DHT22;2753;49.196;8.286;2022-08-01T15:04:50;29.40;59.00
5461;DHT22;2753;49.196;8.286;2022-08-01T15:07:17;29.40;58.80
5461;DHT22;2753;49.196;8.286;2022-08-01T15:09:43;29.40;59.00
5461;DHT22;2753;49.196;8.286;2022-08-01T15:12:09;29.40;59.00
5461;DHT22;2753;49.196;8.286;2022-08-01T15:14:35;29.40;59.10
5461;DHT22;2753;49.196;8.286;2022-08-01T15:19:46;29.30;59.40
5461;DHT22;2753;49.196;8.286;2022-08-01T15:22:13;29.20;59.20
5461;DHT22;2753;49.196;8.286;2022-08-01T15:24:39;29.20;59.30
5461;DHT22;2753;49.196;8.286;2022-08-01T15:27:05;29.20;59.30
5461;DHT22;2753;49.196;8.286;2022-08-01T15:29:31;29.10;59.10
5461;DHT22;2753;49.196;8.286;2022-08-01T15:31:58;29.00;59.20
5461;DHT22;2753;49.196;8.286;2022-08-01T15:34:24;29.00;59.40
5461;DHT22;2753;49.196;8.286;2022-08-01T15:36:51;29.00;59.50
5461;DHT22;2753;49.196;8.286;2022-08-01T15:39:16;29.00;59.50
5461;DHT22;2753;49.196;8.286;2022-08-01T15:41:42;28.90;59.50
5461;DHT22;2753;49.196;8.286;2022-08-01T15:44:08;28.90;59.60
5461;DHT22;2753;49.196;8.286;2022-08-01T15:46:34;29.00;59.60
5461;DHT22;2753;49.196;8.286;2022-08-01T15:49:04;28.90;59.50
5461;DHT22;2753;49.196;8.286;2022-08-01T15:51:30;28.90;59.40
5461;DHT22;2753;49.196;8.286;2022-08-01T15:53:56;28.90;59.50
5461;DHT22;2753;49.196;8.286;2022-08-01T15:56:22;28.90;59.60
5461;DHT22;2753;49.196;8.286;2022-08-01T15:58:49;28.90;59.60
5461;DHT22;2753;49.196;8.286;2022-08-01T16:01:15;28.80;59.80
5461;DHT22;2753;49.196;8.286;2022-08-01T16:03:41;28.80;59.50
5461;DHT22;2753;49.196;8.286;2022-08-01T16:06:06;28.80;59.70
5461;DHT22;2753;49.196;8.286;2022-08-01T16:08:33;28.80;59.90
5461;DHT22;2753;49.196;8.286;2022-08-01T16:11:02;28.80;60.00
5461;DHT22;2753;49.196;8.286;2022-08-01T16:13:27;28.80;60.20
5461;DHT22;2753;49.196;8.286;2022-08-01T16:15:53;28.80;60.50
5461;DHT22;2753;49.196;8.286;2022-08-01T16:18:19;28.70;60.20
5461;DHT22;2753;49.196;8.286;2022-08-01T16:20:45;28.70;60.30
5461;DHT22;2753;49.196;8.286;2022-08-01T16:23:10;28.70;60.20
5461;DHT22;2753;49.196;8.286;2022-08-01T16:25:36;28.70;60.20
5461;DHT22;2753;49.196;8.286;2022-08-01T16:28:02;28.60;60.20
5461;DHT22;2753;49.196;8.286;2022-08-01T16:30:28;28.60;60.30
5461;DHT22;2753;49.196;8.286;2022-08-01T16:32:53;28.50;60.40
5461;DHT22;2753;49.196;8.286;2022-08-01T16:35:19;28.50;60.40
5461;DHT22;2753;49.196;8.286;2022-08-01T16:37:45;28.50;60.40
5461;DHT22;2753;49.196;8.286;2022-08-01T16:40:11;28.50;60.00
5461;DHT22;2753;49.196;8.286;2022-08-01T16:42:36;28.50;60.10
5461;DHT22;2753;49.196;8.286;2022-08-01T16:45:03;28.40;60.00
5461;DHT22;2753;49.196;8.286;2022-08-01T16:47:29;28.40;60.00
5461;DHT22;2753;49.196;8.286;2022-08-01T16:49:55;28.40;60.20
5461;DHT22;2753;49.196;8.286;2022-08-01T16:52:20;28.50;60.20
5461;DHT22;2753;49.196;8.286;2022-08-01T16:54:46;28.50;60.60
5461;DHT22;2753;49.196;8.286;2022-08-01T16:57:12;28.50;60.60
5461;DHT22;2753;49.196;8.286;2022-08-01T16:59:38;28.50;60.80
5461;DHT22;2753;49.196;8.286;2022-08-01T17:02:04;28.30;60.50
5461;DHT22;2753;49.196;8.286;2022-08-01T17:04:29;28.30;60.80
5461;DHT22;2753;49.196;8.286;2022-08-01T17:06:56;28.20;61.00
5461;DHT22;2753;49.196;8.286;2022-08-01T17:09:22;28.20;61.00